Aérodrome :
LOGIN :

S'inscrire | Disclaimer

   EN    FR    IT 

 










Légende :    VFR   VFR Marginal   IFR   IFR Intensif   IFR Très Intensif
Visi : 
Plafond : 
>= 8 km
>= 3000ft
5 à 8 km
1000 à 3000 ft
1500m à 5 km
500 à 1000 ft
800 à 1500m
200 à 500 ft
< 800m
< 200 ft
Symboles :   Orages  Brouillard  Fortes neiges  Fortes précipitations  Vent > 20 kt
SIGMETs :   Divers  Orages  Givrage  Turbulence  Onde Orograph.  Cendres Volcan.







- Altitude de l'aérodrome : 604 ft
- Code IATA : LCJ


EPLL - Lodz

DERNIER METAR :
  • 211800Z 16005KT 120V210 CAVOK 22/11 Q1008

METARs EXPIRÉS :
  • 211730Z 17004KT 110V210 CAVOK 22/11 Q1008
  • 211700Z 15004KT 100V200 CAVOK 22/12 Q1008
  • 211630Z 15005KT 110V210 CAVOK 23/11 Q1008
  • 211600Z 15004KT 110V180 CAVOK 24/12 Q1009
  • 211530Z 18004KT 130V230 CAVOK 24/11 Q1009

TAF TAF EPLL
Valide du 21 à 18h jusqu'au 22 à 18h UTC


211730Z 2118/2218 17010KT CAVOK
TEMPO 2118/2122 20015G26KT
BECMG 2121/2124 30014KT
TEMPO 2122/2207 27018G32KT 4000 RA SCT007 BKN014
PROB40
TEMPO 2122/2203 27022G42KT SHRA BKN020CB
TEMPO 2207/2218 27015G25KT
PROB40
TEMPO 2212/2218 SHRA BKN020CB
Pas de NOTAMs connus pour ce terrain.
1 SIGMET publié pour la FIR Warszawa (EPWW) :
 
Orages noyés dans la masse
EPWW SIGMET 2 VALID 211735/211905 EPWA
EPWW WARSAW FIR EMBD TS OBS WI N5120 E01440 - N5500 E01600 - N5540 E01720 - N5400 E01710 - N5040 E01530 - N5050 E01450 - N5120 E01440 TOP FL330 MOV ENE NC=



MET'MAP, la Météo Aéronautique d'un coup d'oeil ! - Copyright ORBIFLY Décembre 2007 - Disclaimer

ORBIFLY MET'MAP TEAM :

Programmation & Développement : Alexandra Zaïnal
Conception & Développement : Baudouin d'Aumeries
Co-Programmation & Développement : Marc-Olivier Méhu
Soutien technique & logistique : Manuel Goepfert

Contact : metmap@orbifly.com




SOURCES & CREDITS :

   NOAA